sensor_id;sensor_type;location;lat;lon;timestamp;P1;durP1;ratioP1;P2;durP2;ratioP2
17145;SDS011;8688;54.444;18.444;2024-02-23T00:01:52;18.65;;;11.57;;
17145;SDS011;8688;54.444;18.444;2024-02-23T00:04:19;19.88;;;11.30;;
17145;SDS011;8688;54.444;18.444;2024-02-23T00:06:47;21.00;;;12.63;;
17145;SDS011;8688;54.444;18.444;2024-02-23T00:09:14;18.63;;;12.55;;
17145;SDS011;8688;54.444;18.444;2024-02-23T00:11:41;24.55;;;13.98;;
17145;SDS011;8688;54.444;18.444;2024-02-23T00:14:10;27.90;;;15.70;;
17145;SDS011;8688;54.444;18.444;2024-02-23T00:16:38;22.08;;;13.07;;
17145;SDS011;8688;54.444;18.444;2024-02-23T00:19:08;21.67;;;12.23;;
17145;SDS011;8688;54.444;18.444;2024-02-23T00:21:36;19.58;;;11.88;;
17145;SDS011;8688;54.444;18.444;2024-02-23T00:24:03;20.30;;;11.73;;
17145;SDS011;8688;54.444;18.444;2024-02-23T00:26:31;19.48;;;11.38;;
17145;SDS011;8688;54.444;18.444;2024-02-23T00:28:59;20.70;;;11.50;;
17145;SDS011;8688;54.444;18.444;2024-02-23T00:31:26;20.65;;;11.35;;
17145;SDS011;8688;54.444;18.444;2024-02-23T00:33:53;16.85;;;11.30;;
17145;SDS011;8688;54.444;18.444;2024-02-23T00:36:22;18.23;;;10.97;;
17145;SDS011;8688;54.444;18.444;2024-02-23T00:38:50;17.03;;;10.27;;
17145;SDS011;8688;54.444;18.444;2024-02-23T00:41:17;18.10;;;11.37;;
17145;SDS011;8688;54.444;18.444;2024-02-23T00:43:44;18.00;;;11.32;;
17145;SDS011;8688;54.444;18.444;2024-02-23T00:46:12;20.03;;;10.40;;
17145;SDS011;8688;54.444;18.444;2024-02-23T00:48:41;19.33;;;11.03;;
17145;SDS011;8688;54.444;18.444;2024-02-23T00:51:08;20.13;;;10.87;;
17145;SDS011;8688;54.444;18.444;2024-02-23T00:53:37;18.00;;;11.45;;
17145;SDS011;8688;54.444;18.444;2024-02-23T00:56:04;18.10;;;10.90;;
17145;SDS011;8688;54.444;18.444;2024-02-23T00:58:32;18.37;;;10.60;;
17145;SDS011;8688;54.444;18.444;2024-02-23T01:01:00;19.30;;;11.60;;
17145;SDS011;8688;54.444;18.444;2024-02-23T01:03:27;18.73;;;11.20;;
17145;SDS011;8688;54.444;18.444;2024-02-23T01:05:53;19.27;;;11.43;;
17145;SDS011;8688;54.444;18.444;2024-02-23T01:08:21;19.90;;;11.00;;
17145;SDS011;8688;54.444;18.444;2024-02-23T01:10:49;16.00;;;10.40;;
17145;SDS011;8688;54.444;18.444;2024-02-23T01:13:17;16.85;;;10.82;;
17145;SDS011;8688;54.444;18.444;2024-02-23T01:15:44;18.43;;;11.00;;
17145;SDS011;8688;54.444;18.444;2024-02-23T01:18:12;19.75;;;11.57;;
17145;SDS011;8688;54.444;18.444;2024-02-23T01:20:39;16.23;;;10.38;;
17145;SDS011;8688;54.444;18.444;2024-02-23T01:23:06;16.45;;;10.45;;
17145;SDS011;8688;54.444;18.444;2024-02-23T01:25:34;16.40;;;10.65;;
17145;SDS011;8688;54.444;18.444;2024-02-23T01:28:04;18.63;;;11.10;;
17145;SDS011;8688;54.444;18.444;2024-02-23T01:30:31;16.92;;;10.30;;
17145;SDS011;8688;54.444;18.444;2024-02-23T01:32:59;16.98;;;10.48;;
17145;SDS011;8688;54.444;18.444;2024-02-23T01:35:26;15.20;;;9.60;;
17145;SDS011;8688;54.444;18.444;2024-02-23T01:37:54;17.80;;;10.63;;
17145;SDS011;8688;54.444;18.444;2024-02-23T01:40:21;17.88;;;10.40;;
17145;SDS011;8688;54.444;18.444;2024-02-23T01:42:49;17.40;;;10.80;;
17145;SDS011;8688;54.444;18.444;2024-02-23T01:45:28;20.20;;;11.00;;
17145;SDS011;8688;54.444;18.444;2024-02-23T01:47:56;16.02;;;10.30;;
17145;SDS011;8688;54.444;18.444;2024-02-23T01:50:23;16.13;;;10.55;;
17145;SDS011;8688;54.444;18.444;2024-02-23T01:52:51;18.60;;;10.55;;
17145;SDS011;8688;54.444;18.444;2024-02-23T01:55:19;16.92;;;9.77;;
17145;SDS011;8688;54.444;18.444;2024-02-23T01:57:47;16.73;;;10.35;;
17145;SDS011;8688;54.444;18.444;2024-02-23T02:00:16;17.25;;;9.88;;
17145;SDS011;8688;54.444;18.444;2024-02-23T02:02:47;15.70;;;10.15;;
17145;SDS011;8688;54.444;18.444;2024-02-23T02:05:15;16.30;;;9.95;;
17145;SDS011;8688;54.444;18.444;2024-02-23T02:07:42;16.83;;;9.60;;
17145;SDS011;8688;54.444;18.444;2024-02-23T02:10:09;19.27;;;10.32;;
17145;SDS011;8688;54.444;18.444;2024-02-23T02:12:37;14.95;;;9.45;;
17145;SDS011;8688;54.444;18.444;2024-02-23T02:15:06;13.77;;;9.85;;
17145;SDS011;8688;54.444;18.444;2024-02-23T02:17:34;14.88;;;9.80;;
17145;SDS011;8688;54.444;18.444;2024-02-23T02:20:03;15.10;;;9.38;;
17145;SDS011;8688;54.444;18.444;2024-02-23T02:22:32;14.70;;;9.93;;
17145;SDS011;8688;54.444;18.444;2024-02-23T02:25:00;16.65;;;10.25;;
17145;SDS011;8688;54.444;18.444;2024-02-23T02:27:27;15.95;;;10.25;;
17145;SDS011;8688;54.444;18.444;2024-02-23T02:29:54;18.25;;;10.77;;
17145;SDS011;8688;54.444;18.444;2024-02-23T02:32:22;17.60;;;9.60;;
17145;SDS011;8688;54.444;18.444;2024-02-23T02:34:50;15.38;;;10.15;;
17145;SDS011;8688;54.444;18.444;2024-02-23T02:37:19;16.30;;;10.10;;
17145;SDS011;8688;54.444;18.444;2024-02-23T02:39:46;15.63;;;9.50;;
17145;SDS011;8688;54.444;18.444;2024-02-23T02:42:14;14.85;;;9.93;;
17145;SDS011;8688;54.444;18.444;2024-02-23T02:44:41;16.75;;;9.73;;
17145;SDS011;8688;54.444;18.444;2024-02-23T02:47:09;14.48;;;10.07;;
17145;SDS011;8688;54.444;18.444;2024-02-23T02:49:36;14.20;;;9.27;;
17145;SDS011;8688;54.444;18.444;2024-02-23T02:52:03;13.73;;;9.23;;
17145;SDS011;8688;54.444;18.444;2024-02-23T02:54:32;13.90;;;9.47;;
17145;SDS011;8688;54.444;18.444;2024-02-23T02:57:00;14.00;;;9.10;;
17145;SDS011;8688;54.444;18.444;2024-02-23T02:59:27;14.63;;;9.15;;
17145;SDS011;8688;54.444;18.444;2024-02-23T03:01:57;14.37;;;9.27;;
17145;SDS011;8688;54.444;18.444;2024-02-23T03:04:24;12.48;;;9.07;;
17145;SDS011;8688;54.444;18.444;2024-02-23T03:06:51;14.38;;;9.52;;
17145;SDS011;8688;54.444;18.444;2024-02-23T03:09:19;15.00;;;9.55;;
17145;SDS011;8688;54.444;18.444;2024-02-23T03:11:48;13.68;;;9.25;;
17145;SDS011;8688;54.444;18.444;2024-02-23T03:14:15;13.00;;;9.18;;
17145;SDS011;8688;54.444;18.444;2024-02-23T03:16:44;12.48;;;8.77;;
17145;SDS011;8688;54.444;18.444;2024-02-23T03:19:12;14.88;;;9.40;;
17145;SDS011;8688;54.444;18.444;2024-02-23T03:21:40;14.20;;;9.60;;
17145;SDS011;8688;54.444;18.444;2024-02-23T03:24:08;13.13;;;8.93;;
17145;SDS011;8688;54.444;18.444;2024-02-23T03:26:35;14.23;;;9.38;;
17145;SDS011;8688;54.444;18.444;2024-02-23T03:29:04;12.60;;;9.45;;
17145;SDS011;8688;54.444;18.444;2024-02-23T03:31:31;14.10;;;9.38;;
17145;SDS011;8688;54.444;18.444;2024-02-23T03:33:59;14.05;;;9.48;;
17145;SDS011;8688;54.444;18.444;2024-02-23T03:36:26;16.77;;;10.10;;
17145;SDS011;8688;54.444;18.444;2024-02-23T03:38:54;14.15;;;9.63;;
17145;SDS011;8688;54.444;18.444;2024-02-23T03:41:21;14.30;;;9.73;;
17145;SDS011;8688;54.444;18.444;2024-02-23T03:43:49;14.73;;;9.88;;
17145;SDS011;8688;54.444;18.444;2024-02-23T03:46:18;14.18;;;9.23;;
17145;SDS011;8688;54.444;18.444;2024-02-23T03:48:45;14.65;;;9.65;;
17145;SDS011;8688;54.444;18.444;2024-02-23T03:51:12;16.60;;;10.50;;
17145;SDS011;8688;54.444;18.444;2024-02-23T03:53:40;14.38;;;10.13;;
17145;SDS011;8688;54.444;18.444;2024-02-23T03:56:08;17.05;;;10.93;;
17145;SDS011;8688;54.444;18.444;2024-02-23T03:58:35;15.05;;;10.68;;
17145;SDS011;8688;54.444;18.444;2024-02-23T04:01:03;13.88;;;10.13;;
17145;SDS011;8688;54.444;18.444;2024-02-23T04:03:32;14.13;;;10.23;;
17145;SDS011;8688;54.444;18.444;2024-02-23T04:05:59;15.18;;;10.52;;
17145;SDS011;8688;54.444;18.444;2024-02-23T04:08:26;13.95;;;9.70;;
17145;SDS011;8688;54.444;18.444;2024-02-23T04:10:54;16.73;;;10.57;;
17145;SDS011;8688;54.444;18.444;2024-02-23T04:13:21;13.13;;;9.63;;
17145;SDS011;8688;54.444;18.444;2024-02-23T04:15:49;14.82;;;10.45;;
17145;SDS011;8688;54.444;18.444;2024-02-23T04:18:16;17.00;;;10.03;;
17145;SDS011;8688;54.444;18.444;2024-02-23T04:20:45;13.20;;;9.45;;
17145;SDS011;8688;54.444;18.444;2024-02-23T04:23:12;13.65;;;9.73;;
17145;SDS011;8688;54.444;18.444;2024-02-23T04:25:40;13.02;;;9.10;;
17145;SDS011;8688;54.444;18.444;2024-02-23T04:28:07;13.82;;;9.07;;
17145;SDS011;8688;54.444;18.444;2024-02-23T04:30:35;14.05;;;9.85;;
17145;SDS011;8688;54.444;18.444;2024-02-23T04:33:02;12.25;;;8.80;;
17145;SDS011;8688;54.444;18.444;2024-02-23T04:35:29;12.50;;;8.93;;
17145;SDS011;8688;54.444;18.444;2024-02-23T04:37:58;13.52;;;9.10;;
17145;SDS011;8688;54.444;18.444;2024-02-23T04:40:26;12.88;;;9.02;;
17145;SDS011;8688;54.444;18.444;2024-02-23T04:42:53;12.68;;;8.90;;
17145;SDS011;8688;54.444;18.444;2024-02-23T04:45:20;12.88;;;8.70;;
17145;SDS011;8688;54.444;18.444;2024-02-23T04:47:48;10.10;;;8.07;;
17145;SDS011;8688;54.444;18.444;2024-02-23T04:50:15;11.82;;;8.13;;
17145;SDS011;8688;54.444;18.444;2024-02-23T04:52:42;11.13;;;7.43;;
17145;SDS011;8688;54.444;18.444;2024-02-23T04:55:11;10.85;;;8.32;;
17145;SDS011;8688;54.444;18.444;2024-02-23T04:57:38;12.07;;;8.18;;
17145;SDS011;8688;54.444;18.444;2024-02-23T05:00:06;11.05;;;7.78;;
17145;SDS011;8688;54.444;18.444;2024-02-23T05:02:34;14.52;;;8.45;;
17145;SDS011;8688;54.444;18.444;2024-02-23T05:05:02;12.38;;;8.60;;
17145;SDS011;8688;54.444;18.444;2024-02-23T05:07:30;12.50;;;8.75;;
17145;SDS011;8688;54.444;18.444;2024-02-23T05:09:57;16.23;;;8.48;;
17145;SDS011;8688;54.444;18.444;2024-02-23T05:12:26;13.88;;;8.32;;
17145;SDS011;8688;54.444;18.444;2024-02-23T05:14:54;11.80;;;8.10;;
17145;SDS011;8688;54.444;18.444;2024-02-23T05:17:21;10.25;;;7.85;;
17145;SDS011;8688;54.444;18.444;2024-02-23T05:19:48;10.45;;;7.38;;
17145;SDS011;8688;54.444;18.444;2024-02-23T05:22:16;10.90;;;7.22;;
17145;SDS011;8688;54.444;18.444;2024-02-23T05:24:44;11.63;;;7.07;;
17145;SDS011;8688;54.444;18.444;2024-02-23T05:27:11;10.38;;;7.78;;
17145;SDS011;8688;54.444;18.444;2024-02-23T05:29:40;9.63;;;7.55;;
17145;SDS011;8688;54.444;18.444;2024-02-23T05:32:08;10.32;;;6.65;;
17145;SDS011;8688;54.444;18.444;2024-02-23T05:34:36;9.25;;;7.03;;
17145;SDS011;8688;54.444;18.444;2024-02-23T05:37:03;8.75;;;6.53;;
17145;SDS011;8688;54.444;18.444;2024-02-23T05:39:30;8.60;;;6.35;;
17145;SDS011;8688;54.444;18.444;2024-02-23T05:41:58;10.23;;;6.93;;
17145;SDS011;8688;54.444;18.444;2024-02-23T05:44:25;8.27;;;6.28;;
17145;SDS011;8688;54.444;18.444;2024-02-23T05:46:55;8.02;;;5.97;;
17145;SDS011;8688;54.444;18.444;2024-02-23T05:49:22;7.97;;;6.30;;
17145;SDS011;8688;54.444;18.444;2024-02-23T05:51:50;8.32;;;6.32;;
17145;SDS011;8688;54.444;18.444;2024-02-23T05:54:18;8.35;;;5.78;;
17145;SDS011;8688;54.444;18.444;2024-02-23T05:56:46;9.80;;;6.60;;
17145;SDS011;8688;54.444;18.444;2024-02-23T05:59:14;10.98;;;6.10;;
17145;SDS011;8688;54.444;18.444;2024-02-23T06:01:41;8.32;;;5.88;;
17145;SDS011;8688;54.444;18.444;2024-02-23T06:04:10;8.90;;;6.32;;
17145;SDS011;8688;54.444;18.444;2024-02-23T06:06:40;9.32;;;6.43;;
17145;SDS011;8688;54.444;18.444;2024-02-23T06:09:08;9.10;;;6.00;;
17145;SDS011;8688;54.444;18.444;2024-02-23T06:11:36;10.38;;;6.28;;
17145;SDS011;8688;54.444;18.444;2024-02-23T06:14:03;7.35;;;5.85;;
17145;SDS011;8688;54.444;18.444;2024-02-23T06:16:30;10.10;;;6.47;;
17145;SDS011;8688;54.444;18.444;2024-02-23T06:18:58;7.55;;;6.00;;
17145;SDS011;8688;54.444;18.444;2024-02-23T06:21:27;8.88;;;5.72;;
17145;SDS011;8688;54.444;18.444;2024-02-23T06:23:54;8.50;;;5.78;;
17145;SDS011;8688;54.444;18.444;2024-02-23T06:26:22;8.18;;;5.32;;
17145;SDS011;8688;54.444;18.444;2024-02-23T06:28:49;8.48;;;5.68;;
17145;SDS011;8688;54.444;18.444;2024-02-23T06:31:17;8.55;;;5.68;;
17145;SDS011;8688;54.444;18.444;2024-02-23T06:33:44;7.35;;;4.95;;
17145;SDS011;8688;54.444;18.444;2024-02-23T06:36:14;8.57;;;5.10;;
17145;SDS011;8688;54.444;18.444;2024-02-23T06:38:43;7.38;;;5.18;;
17145;SDS011;8688;54.444;18.444;2024-02-23T06:41:10;7.47;;;4.93;;
17145;SDS011;8688;54.444;18.444;2024-02-23T06:43:38;7.78;;;4.60;;
17145;SDS011;8688;54.444;18.444;2024-02-23T06:46:06;9.07;;;5.00;;
17145;SDS011;8688;54.444;18.444;2024-02-23T06:48:34;7.15;;;4.55;;
17145;SDS011;8688;54.444;18.444;2024-02-23T06:51:02;5.95;;;4.25;;
17145;SDS011;8688;54.444;18.444;2024-02-23T06:53:30;6.80;;;4.38;;
17145;SDS011;8688;54.444;18.444;2024-02-23T06:55:58;6.25;;;4.57;;
17145;SDS011;8688;54.444;18.444;2024-02-23T06:58:26;6.78;;;4.57;;
17145;SDS011;8688;54.444;18.444;2024-02-23T07:00:53;6.80;;;4.70;;
17145;SDS011;8688;54.444;18.444;2024-02-23T07:03:22;5.93;;;4.22;;
17145;SDS011;8688;54.444;18.444;2024-02-23T07:05:49;6.30;;;4.18;;
17145;SDS011;8688;54.444;18.444;2024-02-23T07:08:17;7.63;;;4.55;;
17145;SDS011;8688;54.444;18.444;2024-02-23T07:10:44;6.47;;;4.13;;
17145;SDS011;8688;54.444;18.444;2024-02-23T07:13:13;6.82;;;4.00;;
17145;SDS011;8688;54.444;18.444;2024-02-23T07:15:40;5.95;;;3.58;;
17145;SDS011;8688;54.444;18.444;2024-02-23T07:18:07;6.57;;;3.75;;
17145;SDS011;8688;54.444;18.444;2024-02-23T07:20:35;6.47;;;3.78;;
17145;SDS011;8688;54.444;18.444;2024-02-23T07:23:02;5.30;;;3.10;;
17145;SDS011;8688;54.444;18.444;2024-02-23T07:25:30;6.25;;;3.30;;
17145;SDS011;8688;54.444;18.444;2024-02-23T07:27:57;5.28;;;2.88;;
17145;SDS011;8688;54.444;18.444;2024-02-23T07:30:26;6.13;;;3.25;;
17145;SDS011;8688;54.444;18.444;2024-02-23T07:32:54;4.38;;;2.80;;
17145;SDS011;8688;54.444;18.444;2024-02-23T07:35:21;4.97;;;3.00;;
17145;SDS011;8688;54.444;18.444;2024-02-23T07:37:49;4.68;;;2.30;;
17145;SDS011;8688;54.444;18.444;2024-02-23T07:40:16;3.03;;;2.40;;
17145;SDS011;8688;54.444;18.444;2024-02-23T07:42:44;4.50;;;2.78;;
17145;SDS011;8688;54.444;18.444;2024-02-23T07:45:11;4.57;;;2.72;;
17145;SDS011;8688;54.444;18.444;2024-02-23T07:47:40;4.32;;;2.90;;
17145;SDS011;8688;54.444;18.444;2024-02-23T07:50:08;4.22;;;2.45;;
17145;SDS011;8688;54.444;18.444;2024-02-23T07:52:36;4.38;;;2.33;;
17145;SDS011;8688;54.444;18.444;2024-02-23T07:55:04;5.78;;;2.63;;
17145;SDS011;8688;54.444;18.444;2024-02-23T07:57:33;6.32;;;2.67;;
17145;SDS011;8688;54.444;18.444;2024-02-23T08:00:01;5.40;;;2.70;;
17145;SDS011;8688;54.444;18.444;2024-02-23T08:02:29;4.35;;;2.28;;
17145;SDS011;8688;54.444;18.444;2024-02-23T08:04:58;3.88;;;2.22;;
17145;SDS011;8688;54.444;18.444;2024-02-23T08:07:26;4.90;;;2.28;;
17145;SDS011;8688;54.444;18.444;2024-02-23T08:09:55;6.38;;;2.10;;
17145;SDS011;8688;54.444;18.444;2024-02-23T08:12:23;5.85;;;2.80;;
17145;SDS011;8688;54.444;18.444;2024-02-23T08:14:50;3.28;;;2.05;;
17145;SDS011;8688;54.444;18.444;2024-02-23T08:17:18;3.08;;;1.90;;
17145;SDS011;8688;54.444;18.444;2024-02-23T08:19:46;3.63;;;1.63;;
17145;SDS011;8688;54.444;18.444;2024-02-23T08:22:15;2.30;;;1.48;;
17145;SDS011;8688;54.444;18.444;2024-02-23T08:24:42;2.83;;;1.60;;
17145;SDS011;8688;54.444;18.444;2024-02-23T08:27:09;2.75;;;1.25;;
17145;SDS011;8688;54.444;18.444;2024-02-23T08:29:37;2.70;;;1.50;;
17145;SDS011;8688;54.444;18.444;2024-02-23T08:32:05;2.25;;;1.45;;
17145;SDS011;8688;54.444;18.444;2024-02-23T08:34:33;3.35;;;1.35;;
17145;SDS011;8688;54.444;18.444;2024-02-23T08:37:00;4.03;;;1.05;;
17145;SDS011;8688;54.444;18.444;2024-02-23T08:39:29;2.35;;;1.20;;
17145;SDS011;8688;54.444;18.444;2024-02-23T08:41:56;2.45;;;1.20;;
17145;SDS011;8688;54.444;18.444;2024-02-23T08:44:24;3.95;;;1.10;;
17145;SDS011;8688;54.444;18.444;2024-02-23T08:46:51;2.17;;;1.23;;
17145;SDS011;8688;54.444;18.444;2024-02-23T08:49:19;3.97;;;1.10;;
17145;SDS011;8688;54.444;18.444;2024-02-23T08:51:46;2.42;;;1.00;;
17145;SDS011;8688;54.444;18.444;2024-02-23T08:54:14;1.80;;;0.90;;
17145;SDS011;8688;54.444;18.444;2024-02-23T08:56:43;2.80;;;1.17;;
17145;SDS011;8688;54.444;18.444;2024-02-23T08:59:10;2.00;;;1.10;;
17145;SDS011;8688;54.444;18.444;2024-02-23T09:01:37;3.83;;;1.33;;
17145;SDS011;8688;54.444;18.444;2024-02-23T09:04:05;4.50;;;1.40;;
17145;SDS011;8688;54.444;18.444;2024-02-23T09:06:32;2.58;;;1.10;;
17145;SDS011;8688;54.444;18.444;2024-02-23T09:09:00;4.82;;;1.13;;
17145;SDS011;8688;54.444;18.444;2024-02-23T09:11:27;2.83;;;1.17;;
17145;SDS011;8688;54.444;18.444;2024-02-23T09:13:56;4.32;;;1.42;;
17145;SDS011;8688;54.444;18.444;2024-02-23T09:16:23;4.28;;;1.23;;
17145;SDS011;8688;54.444;18.444;2024-02-23T09:18:51;4.07;;;1.25;;
17145;SDS011;8688;54.444;18.444;2024-02-23T09:21:18;1.33;;;0.90;;
17145;SDS011;8688;54.444;18.444;2024-02-23T09:23:46;5.65;;;1.70;;
17145;SDS011;8688;54.444;18.444;2024-02-23T09:26:13;7.95;;;2.22;;
17145;SDS011;8688;54.444;18.444;2024-02-23T09:28:41;6.03;;;1.67;;
17145;SDS011;8688;54.444;18.444;2024-02-23T09:31:11;4.38;;;1.30;;
17145;SDS011;8688;54.444;18.444;2024-02-23T09:33:39;5.50;;;1.42;;
17145;SDS011;8688;54.444;18.444;2024-02-23T09:36:06;4.30;;;1.40;;
17145;SDS011;8688;54.444;18.444;2024-02-23T09:38:35;5.38;;;1.52;;
17145;SDS011;8688;54.444;18.444;2024-02-23T09:41:02;7.38;;;1.70;;
17145;SDS011;8688;54.444;18.444;2024-02-23T09:43:31;6.30;;;1.63;;
17145;SDS011;8688;54.444;18.444;2024-02-23T09:46:00;9.32;;;1.88;;
17145;SDS011;8688;54.444;18.444;2024-02-23T09:48:29;8.85;;;2.25;;
17145;SDS011;8688;54.444;18.444;2024-02-23T09:51:00;18.27;;;3.88;;
17145;SDS011;8688;54.444;18.444;2024-02-23T09:53:28;12.77;;;3.63;;
17145;SDS011;8688;54.444;18.444;2024-02-23T09:55:56;15.77;;;3.00;;
17145;SDS011;8688;54.444;18.444;2024-02-23T09:58:26;15.25;;;3.13;;
17145;SDS011;8688;54.444;18.444;2024-02-23T10:00:55;6.80;;;2.00;;
17145;SDS011;8688;54.444;18.444;2024-02-23T10:03:24;4.43;;;1.55;;
17145;SDS011;8688;54.444;18.444;2024-02-23T10:05:55;2.83;;;1.20;;
17145;SDS011;8688;54.444;18.444;2024-02-23T10:08:23;4.22;;;1.45;;
17145;SDS011;8688;54.444;18.444;2024-02-23T10:10:50;4.45;;;1.38;;
17145;SDS011;8688;54.444;18.444;2024-02-23T10:13:18;4.28;;;0.93;;
17145;SDS011;8688;54.444;18.444;2024-02-23T10:15:46;6.68;;;1.70;;
17145;SDS011;8688;54.444;18.444;2024-02-23T10:18:13;1.63;;;1.00;;
17145;SDS011;8688;54.444;18.444;2024-02-23T10:20:41;2.15;;;1.05;;
17145;SDS011;8688;54.444;18.444;2024-02-23T10:23:10;2.45;;;1.02;;
17145;SDS011;8688;54.444;18.444;2024-02-23T10:25:38;2.47;;;0.80;;
17145;SDS011;8688;54.444;18.444;2024-02-23T10:28:06;2.92;;;0.70;;
17145;SDS011;8688;54.444;18.444;2024-02-23T10:30:36;4.28;;;1.90;;
17145;SDS011;8688;54.444;18.444;2024-02-23T10:33:05;5.18;;;1.73;;
17145;SDS011;8688;54.444;18.444;2024-02-23T10:35:33;3.40;;;1.60;;
17145;SDS011;8688;54.444;18.444;2024-02-23T10:38:05;2.22;;;1.00;;
17145;SDS011;8688;54.444;18.444;2024-02-23T10:40:36;4.15;;;1.90;;
17145;SDS011;8688;54.444;18.444;2024-02-23T10:43:08;1.35;;;0.55;;
17145;SDS011;8688;54.444;18.444;2024-02-23T10:45:38;4.60;;;1.20;;
17145;SDS011;8688;54.444;18.444;2024-02-23T10:48:07;4.10;;;1.10;;
17145;SDS011;8688;54.444;18.444;2024-02-23T10:50:36;3.05;;;0.80;;
17145;SDS011;8688;54.444;18.444;2024-02-23T10:53:04;2.67;;;0.90;;
17145;SDS011;8688;54.444;18.444;2024-02-23T10:55:35;4.53;;;1.33;;
17145;SDS011;8688;54.444;18.444;2024-02-23T10:58:04;1.90;;;0.70;;
17145;SDS011;8688;54.444;18.444;2024-02-23T11:00:36;1.80;;;0.75;;
17145;SDS011;8688;54.444;18.444;2024-02-23T11:03:04;3.30;;;0.80;;
17145;SDS011;8688;54.444;18.444;2024-02-23T11:05:33;5.38;;;1.20;;
17145;SDS011;8688;54.444;18.444;2024-02-23T11:08:00;12.32;;;1.30;;
17145;SDS011;8688;54.444;18.444;2024-02-23T11:10:28;2.83;;;0.90;;
17145;SDS011;8688;54.444;18.444;2024-02-23T11:12:59;3.75;;;2.30;;
17145;SDS011;8688;54.444;18.444;2024-02-23T11:15:27;3.83;;;1.23;;
17145;SDS011;8688;54.444;18.444;2024-02-23T11:17:55;2.75;;;1.60;;
17145;SDS011;8688;54.444;18.444;2024-02-23T11:20:22;3.50;;;1.35;;
17145;SDS011;8688;54.444;18.444;2024-02-23T11:22:51;2.42;;;1.13;;
17145;SDS011;8688;54.444;18.444;2024-02-23T11:25:19;3.53;;;1.05;;
17145;SDS011;8688;54.444;18.444;2024-02-23T11:27:53;3.20;;;1.30;;
17145;SDS011;8688;54.444;18.444;2024-02-23T11:30:21;3.75;;;1.15;;
17145;SDS011;8688;54.444;18.444;2024-02-23T11:32:49;3.22;;;1.27;;
17145;SDS011;8688;54.444;18.444;2024-02-23T11:35:19;3.20;;;1.27;;
17145;SDS011;8688;54.444;18.444;2024-02-23T11:37:52;6.93;;;1.30;;
17145;SDS011;8688;54.444;18.444;2024-02-23T11:40:24;6.32;;;1.50;;
17145;SDS011;8688;54.444;18.444;2024-02-23T11:42:52;7.82;;;2.95;;
17145;SDS011;8688;54.444;18.444;2024-02-23T11:45:23;5.40;;;2.20;;
17145;SDS011;8688;54.444;18.444;2024-02-23T11:47:51;3.70;;;2.00;;
17145;SDS011;8688;54.444;18.444;2024-02-23T11:50:19;3.40;;;1.38;;
17145;SDS011;8688;54.444;18.444;2024-02-23T11:52:46;5.10;;;1.10;;
17145;SDS011;8688;54.444;18.444;2024-02-23T11:55:17;1.70;;;0.95;;
17145;SDS011;8688;54.444;18.444;2024-02-23T11:57:47;2.10;;;1.02;;
17145;SDS011;8688;54.444;18.444;2024-02-23T12:00:15;2.25;;;0.90;;
17145;SDS011;8688;54.444;18.444;2024-02-23T12:02:44;2.88;;;2.10;;
17145;SDS011;8688;54.444;18.444;2024-02-23T12:05:15;6.20;;;1.80;;
17145;SDS011;8688;54.444;18.444;2024-02-23T12:07:42;2.33;;;1.20;;
17145;SDS011;8688;54.444;18.444;2024-02-23T12:10:10;4.50;;;1.08;;
17145;SDS011;8688;54.444;18.444;2024-02-23T12:12:38;2.97;;;1.10;;
17145;SDS011;8688;54.444;18.444;2024-02-23T12:15:06;3.30;;;1.00;;
17145;SDS011;8688;54.444;18.444;2024-02-23T12:17:35;3.40;;;0.80;;
17145;SDS011;8688;54.444;18.444;2024-02-23T12:20:05;2.08;;;1.10;;
17145;SDS011;8688;54.444;18.444;2024-02-23T12:22:35;1.70;;;0.80;;
17145;SDS011;8688;54.444;18.444;2024-02-23T12:25:02;2.42;;;1.15;;
17145;SDS011;8688;54.444;18.444;2024-02-23T12:27:30;2.75;;;1.00;;
17145;SDS011;8688;54.444;18.444;2024-02-23T12:29:57;1.30;;;0.82;;
17145;SDS011;8688;54.444;18.444;2024-02-23T12:32:25;2.30;;;1.20;;
17145;SDS011;8688;54.444;18.444;2024-02-23T12:34:52;2.40;;;1.00;;
17145;SDS011;8688;54.444;18.444;2024-02-23T12:37:21;2.05;;;1.10;;
17145;SDS011;8688;54.444;18.444;2024-02-23T12:39:49;2.20;;;1.13;;
17145;SDS011;8688;54.444;18.444;2024-02-23T12:42:17;2.65;;;1.00;;
17145;SDS011;8688;54.444;18.444;2024-02-23T12:44:45;1.48;;;0.90;;
17145;SDS011;8688;54.444;18.444;2024-02-23T12:47:12;3.90;;;1.50;;
17145;SDS011;8688;54.444;18.444;2024-02-23T12:49:40;1.45;;;1.00;;
17145;SDS011;8688;54.444;18.444;2024-02-23T12:52:07;4.15;;;1.10;;
17145;SDS011;8688;54.444;18.444;2024-02-23T12:54:37;4.15;;;1.42;;
17145;SDS011;8688;54.444;18.444;2024-02-23T12:57:04;2.88;;;0.90;;
17145;SDS011;8688;54.444;18.444;2024-02-23T12:59:31;2.03;;;1.20;;
17145;SDS011;8688;54.444;18.444;2024-02-23T13:01:59;2.35;;;1.35;;
17145;SDS011;8688;54.444;18.444;2024-02-23T13:04:26;1.58;;;0.90;;
17145;SDS011;8688;54.444;18.444;2024-02-23T13:06:54;4.05;;;1.00;;
17145;SDS011;8688;54.444;18.444;2024-02-23T13:09:23;2.63;;;1.05;;
17145;SDS011;8688;54.444;18.444;2024-02-23T13:11:52;2.22;;;1.00;;
17145;SDS011;8688;54.444;18.444;2024-02-23T13:14:20;2.83;;;1.52;;
17145;SDS011;8688;54.444;18.444;2024-02-23T13:16:47;3.90;;;1.20;;
17145;SDS011;8688;54.444;18.444;2024-02-23T13:19:14;1.55;;;0.95;;
17145;SDS011;8688;54.444;18.444;2024-02-23T13:21:42;3.97;;;1.08;;
17145;SDS011;8688;54.444;18.444;2024-02-23T13:24:09;2.55;;;1.00;;
17145;SDS011;8688;54.444;18.444;2024-02-23T13:26:36;2.80;;;1.00;;
17145;SDS011;8688;54.444;18.444;2024-02-23T13:29:05;4.40;;;1.27;;
17145;SDS011;8688;54.444;18.444;2024-02-23T13:31:33;3.85;;;1.10;;
17145;SDS011;8688;54.444;18.444;2024-02-23T13:34:01;2.17;;;1.10;;
17145;SDS011;8688;54.444;18.444;2024-02-23T13:36:28;4.25;;;1.25;;
17145;SDS011;8688;54.444;18.444;2024-02-23T13:38:55;3.65;;;1.33;;
17145;SDS011;8688;54.444;18.444;2024-02-23T13:41:23;5.53;;;1.58;;
17145;SDS011;8688;54.444;18.444;2024-02-23T13:43:50;5.60;;;1.40;;
17145;SDS011;8688;54.444;18.444;2024-02-23T13:46:19;4.45;;;1.50;;
17145;SDS011;8688;54.444;18.444;2024-02-23T13:48:47;5.10;;;1.50;;
17145;SDS011;8688;54.444;18.444;2024-02-23T13:51:29;6.75;;;1.48;;
17145;SDS011;8688;54.444;18.444;2024-02-23T13:53:56;2.30;;;1.13;;
17145;SDS011;8688;54.444;18.444;2024-02-23T13:56:23;5.05;;;1.20;;
17145;SDS011;8688;54.444;18.444;2024-02-23T13:58:51;3.35;;;1.27;;
17145;SDS011;8688;54.444;18.444;2024-02-23T14:01:20;5.60;;;1.27;;
17145;SDS011;8688;54.444;18.444;2024-02-23T14:03:47;5.60;;;1.52;;
17145;SDS011;8688;54.444;18.444;2024-02-23T14:06:15;4.05;;;1.40;;
17145;SDS011;8688;54.444;18.444;2024-02-23T14:08:42;3.45;;;1.50;;
17145;SDS011;8688;54.444;18.444;2024-02-23T14:11:12;2.45;;;1.13;;
17145;SDS011;8688;54.444;18.444;2024-02-23T14:13:40;3.65;;;1.23;;
17145;SDS011;8688;54.444;18.444;2024-02-23T14:16:09;4.53;;;1.58;;
17145;SDS011;8688;54.444;18.444;2024-02-23T14:18:38;3.63;;;1.20;;
17145;SDS011;8688;54.444;18.444;2024-02-23T14:21:07;2.45;;;1.20;;
17145;SDS011;8688;54.444;18.444;2024-02-23T14:23:35;3.22;;;1.23;;
17145;SDS011;8688;54.444;18.444;2024-02-23T14:26:03;4.90;;;1.70;;
17145;SDS011;8688;54.444;18.444;2024-02-23T14:28:30;3.88;;;1.48;;
17145;SDS011;8688;54.444;18.444;2024-02-23T14:30:58;5.70;;;1.60;;
17145;SDS011;8688;54.444;18.444;2024-02-23T14:33:25;1.90;;;1.10;;
17145;SDS011;8688;54.444;18.444;2024-02-23T14:35:54;2.97;;;1.05;;
17145;SDS011;8688;54.444;18.444;2024-02-23T14:38:22;3.90;;;1.30;;
17145;SDS011;8688;54.444;18.444;2024-02-23T14:40:49;5.05;;;1.65;;
17145;SDS011;8688;54.444;18.444;2024-02-23T14:43:16;4.82;;;1.52;;
17145;SDS011;8688;54.444;18.444;2024-02-23T14:45:44;3.15;;;1.58;;